< < Back
Terminal Aerodrome Forecast


Current Version              Previous Versions:   1  2  3  4  5  6  7  8  9  

Terminal Aerodrome Forecast

736
FTUS42 KCHS 081703 AAB
TAFSAV
TAF AMD
KSAV 081703Z 0817/0912 24016G22KT P6SM SKC
     FM082200 24019G27KT P6SM BKN060
     FM090000 27013G19KT P6SM VCSH SCT035 OVC050
     FM090500 28013G19KT P6SM FEW035=

Latest METAR

508
SAUS80 KWBC 081700 RRA
MTRSAV
METAR KSAV 081653Z 26014G21KT 10SM CLR 16/M02 A2989 RMK AO2 SLP119
T01561017


USA.gov is the U.S. government's official web portal to all federal, state and local government web resources and services.